createdAt,value
2023-05-04T00:00:50.737Z,26.84
2023-05-04T00:01:50.702Z,26.83
2023-05-04T00:02:50.865Z,26.81
2023-05-04T00:03:51.060Z,26.84
2023-05-04T00:04:50.903Z,26.83
2023-05-04T00:05:50.906Z,26.83
2023-05-04T00:06:50.909Z,26.84
2023-05-04T00:07:50.968Z,26.84
2023-05-04T00:08:50.960Z,26.83
2023-05-04T00:09:51.035Z,26.84
2023-05-04T00:10:51.042Z,26.83
2023-05-04T00:11:51.090Z,26.83
2023-05-04T00:12:51.121Z,26.81
2023-05-04T00:13:51.178Z,26.81
2023-05-04T00:14:51.160Z,26.81
2023-05-04T00:15:51.347Z,26.84
2023-05-04T00:16:51.222Z,26.81
2023-05-04T00:17:51.327Z,26.78
2023-05-04T00:18:51.345Z,26.78
2023-05-04T00:19:51.368Z,26.77
2023-05-04T00:20:51.422Z,26.78
2023-05-04T00:21:51.473Z,26.78
2023-05-04T00:22:51.469Z,26.78
2023-05-04T00:23:51.536Z,26.81
2023-05-04T00:24:51.540Z,26.80
2023-05-04T00:25:51.582Z,26.77
2023-05-04T00:26:51.669Z,26.77
2023-05-04T00:27:51.712Z,26.78
2023-05-04T00:28:51.716Z,26.75
2023-05-04T00:29:51.778Z,26.75
2023-05-04T00:30:51.840Z,26.75
2023-05-04T00:31:51.865Z,26.74
2023-05-04T00:32:51.887Z,26.74
2023-05-04T00:33:51.966Z,26.77
2023-05-04T00:34:52.021Z,26.78
2023-05-04T00:35:52.033Z,26.77
2023-05-04T00:36:52.089Z,26.77
2023-05-04T00:37:52.105Z,26.75
2023-05-04T00:38:52.190Z,26.78
2023-05-04T00:39:52.217Z,26.73
2023-05-04T00:40:52.242Z,26.77
2023-05-04T00:41:52.327Z,26.77
2023-05-04T00:42:52.320Z,26.75
2023-05-04T00:43:52.356Z,26.74
2023-05-04T00:44:52.448Z,26.75
2023-05-04T00:45:52.459Z,26.74
2023-05-04T00:46:52.609Z,26.74
2023-05-04T00:47:52.569Z,26.74
2023-05-04T00:48:52.586Z,26.75
2023-05-04T00:49:52.650Z,26.75
2023-05-04T00:50:52.687Z,26.75
2023-05-04T00:51:52.704Z,26.73
2023-05-04T00:52:52.762Z,26.74
2023-05-04T00:53:52.770Z,26.74
2023-05-04T00:54:52.891Z,26.74
2023-05-04T00:55:52.932Z,26.75
2023-05-04T00:56:52.954Z,26.73
2023-05-04T00:57:52.996Z,26.74
2023-05-04T00:58:53.062Z,26.75
2023-05-04T00:59:53.109Z,26.73
2023-05-04T01:00:53.153Z,26.74
2023-05-04T01:01:53.204Z,26.74
2023-05-04T01:02:53.289Z,26.73
2023-05-04T01:03:53.293Z,26.71
2023-05-04T01:04:53.360Z,26.74
2023-05-04T01:05:53.365Z,26.74
2023-05-04T01:06:53.415Z,26.73
2023-05-04T01:07:53.532Z,26.70
2023-05-04T01:08:53.533Z,26.73
2023-05-04T01:09:53.592Z,26.74
2023-05-04T01:10:53.643Z,26.70
2023-05-04T01:11:53.714Z,26.71
2023-05-04T01:12:53.806Z,26.73
2023-05-04T01:13:53.836Z,26.71
2023-05-04T01:14:53.831Z,26.73
2023-05-04T01:15:53.946Z,26.70
2023-05-04T01:16:54.013Z,26.70
2023-05-04T01:17:54.128Z,26.70
2023-05-04T01:18:54.094Z,26.70
2023-05-04T01:19:54.275Z,26.70
2023-05-04T01:20:54.188Z,26.71
2023-05-04T01:21:54.239Z,26.71
2023-05-04T01:22:54.296Z,26.70
2023-05-04T01:23:54.358Z,26.68
2023-05-04T01:24:54.430Z,26.70
2023-05-04T01:25:54.455Z,26.70
2023-05-04T01:26:54.503Z,26.71
2023-05-04T01:27:54.584Z,26.68
2023-05-04T01:28:54.653Z,26.73
2023-05-04T01:29:54.714Z,26.70
2023-05-04T01:30:54.720Z,26.68
2023-05-04T01:31:54.771Z,26.71
2023-05-04T01:32:54.841Z,26.68
2023-05-04T01:33:54.868Z,26.70
2023-05-04T01:34:55.062Z,26.68
2023-05-04T01:35:54.963Z,26.67
2023-05-04T01:36:55.046Z,26.71
2023-05-04T01:37:55.102Z,26.68
2023-05-04T01:38:55.129Z,26.68
2023-05-04T01:39:55.222Z,26.68
2023-05-04T01:40:55.279Z,26.68
2023-05-04T01:41:55.343Z,26.67
2023-05-04T01:42:55.392Z,26.67
2023-05-04T01:43:55.450Z,26.68
2023-05-04T01:44:55.504Z,26.65
2023-05-04T01:45:55.595Z,26.67
2023-05-04T01:46:55.644Z,26.67
2023-05-04T01:47:55.697Z,26.68
2023-05-04T01:48:55.708Z,26.67
2023-05-04T01:49:55.766Z,26.67
2023-05-04T01:50:55.815Z,26.67
2023-05-04T01:51:55.860Z,26.64
2023-05-04T01:52:55.940Z,26.67
2023-05-04T01:53:55.980Z,26.65
2023-05-04T01:54:56.016Z,26.68
2023-05-04T01:55:56.098Z,26.67
2023-05-04T01:56:56.156Z,26.64
2023-05-04T01:57:56.221Z,26.64
2023-05-04T01:58:56.287Z,26.64
2023-05-04T01:59:56.303Z,26.64
2023-05-04T02:00:56.364Z,26.65
2023-05-04T02:01:56.496Z,26.65
2023-05-04T02:02:56.539Z,26.64
2023-05-04T02:03:56.622Z,26.65
2023-05-04T02:04:56.569Z,26.65
2023-05-04T02:05:56.633Z,26.67
2023-05-04T02:06:56.687Z,26.65
2023-05-04T02:07:56.744Z,26.61
2023-05-04T02:08:56.802Z,26.64
2023-05-04T02:09:56.866Z,26.65
2023-05-04T02:10:56.911Z,26.65
2023-05-04T02:11:56.979Z,26.67
2023-05-04T02:12:57.065Z,26.65
2023-05-04T02:13:57.089Z,26.67
2023-05-04T02:14:57.142Z,26.65
2023-05-04T02:15:57.255Z,26.65
2023-05-04T02:16:57.274Z,26.64
2023-05-04T02:17:57.331Z,26.68
2023-05-04T02:18:57.374Z,26.65
2023-05-04T02:19:57.443Z,26.61
2023-05-04T02:20:57.511Z,26.64
2023-05-04T02:21:57.568Z,26.65
2023-05-04T02:22:57.580Z,26.64
2023-05-04T02:23:57.672Z,26.63
2023-05-04T02:24:57.731Z,26.63
2023-05-04T02:25:57.799Z,26.63
2023-05-04T02:26:57.840Z,26.60
2023-05-04T02:27:57.912Z,26.61
2023-05-04T02:28:57.971Z,26.61
2023-05-04T02:29:58.020Z,26.64
2023-05-04T02:30:58.079Z,26.61
2023-05-04T02:31:58.217Z,26.60
2023-05-04T02:32:58.228Z,26.63
2023-05-04T02:33:58.256Z,26.61
2023-05-04T02:34:58.308Z,26.63
2023-05-04T02:35:58.372Z,26.60
2023-05-04T02:36:58.430Z,26.63
2023-05-04T02:37:58.487Z,26.60
2023-05-04T02:38:58.536Z,26.58
2023-05-04T02:39:58.596Z,26.60
2023-05-04T02:40:58.748Z,26.61
2023-05-04T02:41:58.715Z,26.61
2023-05-04T02:42:58.777Z,26.61
2023-05-04T02:43:58.842Z,26.60
2023-05-04T02:44:58.887Z,26.58
2023-05-04T02:45:58.956Z,26.58
2023-05-04T02:46:59.019Z,26.60
2023-05-04T02:47:59.136Z,26.63
2023-05-04T02:48:59.134Z,26.58
2023-05-04T02:49:59.169Z,26.60
2023-05-04T02:50:59.259Z,26.60
2023-05-04T02:51:59.316Z,26.61
2023-05-04T02:52:59.373Z,26.60
2023-05-04T02:53:59.409Z,26.58
2023-05-04T02:54:59.521Z,26.58
2023-05-04T02:55:59.581Z,26.58
2023-05-04T02:56:59.635Z,26.55
2023-05-04T02:57:59.698Z,26.58
2023-05-04T02:58:59.766Z,26.60
2023-05-04T02:59:59.819Z,26.57
2023-05-04T03:00:59.911Z,26.58
2023-05-04T03:01:59.938Z,26.60
2023-05-04T03:03:00.016Z,26.58
2023-05-04T03:04:00.096Z,26.60
2023-05-04T03:05:00.164Z,26.58
2023-05-04T03:06:00.181Z,26.60
2023-05-04T03:07:00.230Z,26.57
2023-05-04T03:08:00.306Z,26.55
2023-05-04T03:09:00.338Z,26.57
2023-05-04T03:10:00.396Z,26.55
2023-05-04T03:11:00.460Z,26.55
2023-05-04T03:12:00.510Z,26.57
2023-05-04T03:13:00.607Z,26.57
2023-05-04T03:14:00.653Z,26.57
2023-05-04T03:15:00.690Z,26.57
2023-05-04T03:16:00.783Z,26.57
2023-05-04T03:17:00.853Z,26.55
2023-05-04T03:18:00.986Z,26.57
2023-05-04T03:19:00.913Z,26.57
2023-05-04T03:20:00.979Z,26.58
2023-05-04T03:21:01.066Z,26.57
2023-05-04T03:22:01.095Z,26.55
2023-05-04T03:23:01.176Z,26.55
2023-05-04T03:24:01.269Z,26.55
2023-05-04T03:25:01.268Z,26.57
2023-05-04T03:26:02.217Z,26.55
2023-05-04T03:27:01.394Z,26.57
2023-05-04T03:28:01.442Z,26.55
2023-05-04T03:29:01.525Z,26.57
2023-05-04T03:30:01.624Z,26.55
2023-05-04T03:31:01.612Z,26.55
2023-05-04T03:32:01.728Z,26.54
2023-05-04T03:33:01.745Z,26.54
2023-05-04T03:34:01.793Z,26.57
2023-05-04T03:35:03.908Z,26.54
2023-05-04T03:36:01.886Z,26.54
2023-05-04T03:37:01.955Z,26.57
2023-05-04T03:38:02.017Z,26.54
2023-05-04T03:39:02.091Z,26.51
2023-05-04T03:40:02.186Z,26.54
2023-05-04T03:41:02.187Z,26.53
2023-05-04T03:42:02.255Z,26.53
2023-05-04T03:43:02.307Z,26.53
2023-05-04T03:44:02.370Z,26.53
2023-05-04T03:45:03.998Z,26.51
2023-05-04T03:46:02.532Z,26.53
2023-05-04T03:47:02.569Z,26.53
2023-05-04T03:48:02.636Z,26.54
2023-05-04T03:49:02.650Z,26.53
2023-05-04T03:50:02.920Z,26.53
2023-05-04T03:51:02.811Z,26.50
2023-05-04T03:52:02.835Z,26.53
2023-05-04T03:53:02.896Z,26.50
2023-05-04T03:54:02.941Z,26.51
2023-05-04T03:55:03.001Z,26.53
2023-05-04T03:56:03.070Z,26.50
2023-05-04T03:57:03.116Z,26.53
2023-05-04T03:58:03.196Z,26.53
2023-05-04T03:59:03.241Z,26.51
2023-05-04T04:00:03.536Z,26.53
2023-05-04T04:01:03.374Z,26.50
2023-05-04T04:02:03.472Z,26.51
2023-05-04T04:03:03.517Z,26.50
2023-05-04T04:04:03.911Z,26.48
2023-05-04T04:05:03.585Z,26.48
2023-05-04T04:06:03.627Z,26.51
2023-05-04T04:07:03.718Z,26.48
2023-05-04T04:08:03.769Z,26.46
2023-05-04T04:09:03.861Z,26.48
2023-05-04T04:10:04.025Z,26.47
2023-05-04T04:11:03.958Z,26.46
2023-05-04T04:12:04.007Z,26.46
2023-05-04T04:13:04.136Z,26.44
2023-05-04T04:14:04.063Z,26.44
2023-05-04T04:15:04.122Z,26.43
2023-05-04T04:16:04.135Z,26.43
2023-05-04T04:17:04.175Z,26.44
2023-05-04T04:18:04.273Z,26.43
2023-05-04T04:19:04.248Z,26.43
2023-05-04T04:20:04.393Z,26.43
2023-05-04T04:21:04.311Z,26.43
2023-05-04T04:22:04.306Z,26.43
2023-05-04T04:23:04.316Z,26.43
2023-05-04T04:24:04.388Z,26.46
2023-05-04T04:25:04.352Z,26.44
2023-05-04T04:26:04.407Z,26.43
2023-05-04T04:27:04.413Z,26.43
2023-05-04T04:28:04.407Z,26.42
2023-05-04T04:29:04.440Z,26.42
2023-05-04T04:30:04.757Z,26.44
2023-05-04T04:31:04.445Z,26.43
2023-05-04T04:32:04.404Z,26.42
2023-05-04T04:33:04.493Z,26.44
2023-05-04T04:34:04.497Z,26.44
2023-05-04T04:35:04.512Z,26.44
2023-05-04T04:36:04.565Z,26.46
2023-05-04T04:37:04.506Z,26.44
2023-05-04T04:38:04.529Z,26.44
2023-05-04T04:39:04.594Z,26.47
2023-05-04T04:40:04.876Z,26.48
2023-05-04T04:41:04.639Z,26.47
2023-05-04T04:42:04.656Z,26.48
2023-05-04T04:43:04.743Z,26.50
2023-05-04T04:44:04.776Z,26.53
2023-05-04T04:45:04.832Z,26.54
2023-05-04T04:46:04.832Z,26.55
2023-05-04T04:47:04.999Z,26.57
2023-05-04T04:48:05.039Z,26.57
2023-05-04T04:49:05.062Z,26.57
2023-05-04T04:50:05.453Z,26.58
2023-05-04T04:51:05.187Z,26.58
2023-05-04T04:52:05.249Z,26.60
2023-05-04T04:53:05.278Z,26.61
2023-05-04T04:54:05.350Z,26.63
2023-05-04T04:55:05.438Z,26.61
2023-05-04T04:56:05.464Z,26.64
2023-05-04T04:57:05.536Z,26.68
2023-05-04T04:58:05.582Z,26.67
2023-05-04T04:59:05.686Z,26.64
2023-05-04T05:00:06.043Z,26.68
2023-05-04T05:01:05.758Z,26.70
2023-05-04T05:02:06.730Z,26.70
2023-05-04T05:03:05.971Z,26.71
2023-05-04T05:04:05.998Z,26.71
2023-05-04T05:05:06.172Z,26.71
2023-05-04T05:06:06.036Z,26.71
2023-05-04T05:07:06.113Z,26.73
2023-05-04T05:08:06.195Z,26.74
2023-05-04T05:09:06.567Z,26.77
2023-05-04T05:10:06.394Z,26.77
2023-05-04T05:11:06.350Z,26.78
2023-05-04T05:12:06.437Z,26.78
2023-05-04T05:13:06.446Z,26.78
2023-05-04T05:14:06.475Z,26.80
2023-05-04T05:15:06.519Z,26.80
2023-05-04T05:16:06.674Z,26.78
2023-05-04T05:17:06.703Z,26.83
2023-05-04T05:18:06.737Z,26.81
2023-05-04T05:19:06.705Z,26.81
2023-05-04T05:20:06.783Z,26.83
2023-05-04T05:21:06.792Z,26.81
2023-05-04T05:22:06.846Z,26.85
2023-05-04T05:23:06.891Z,26.83
2023-05-04T05:24:06.919Z,26.85
2023-05-04T05:25:06.958Z,26.85
2023-05-04T05:26:07.010Z,26.87
2023-05-04T05:27:07.080Z,26.87
2023-05-04T05:28:07.121Z,26.90
2023-05-04T05:29:07.138Z,26.87
2023-05-04T05:30:07.353Z,26.87
2023-05-04T05:31:07.289Z,26.87
2023-05-04T05:32:07.306Z,26.90
2023-05-04T05:33:07.344Z,26.88
2023-05-04T05:34:07.364Z,26.85
2023-05-04T05:35:07.441Z,26.84
2023-05-04T05:36:07.485Z,26.87
2023-05-04T05:37:07.622Z,26.85
2023-05-04T05:38:07.593Z,26.85
2023-05-04T05:39:07.720Z,26.83
2023-05-04T05:40:07.983Z,26.81
2023-05-04T05:41:07.792Z,26.80
2023-05-04T05:42:07.824Z,26.80
2023-05-04T05:43:07.897Z,26.81
2023-05-04T05:44:07.944Z,26.81
2023-05-04T05:45:08.260Z,26.84
2023-05-04T05:46:08.100Z,26.78
2023-05-04T05:47:08.145Z,26.81
2023-05-04T05:48:08.282Z,26.81
2023-05-04T05:49:08.242Z,26.81
2023-05-04T05:50:08.377Z,26.81
2023-05-04T05:51:08.350Z,26.84
2023-05-04T05:52:08.408Z,26.87
2023-05-04T05:53:08.424Z,26.84
2023-05-04T05:54:08.454Z,26.87
2023-05-04T05:55:08.543Z,26.91
2023-05-04T05:56:08.537Z,26.90
2023-05-04T05:57:08.621Z,26.91
2023-05-04T05:58:08.611Z,26.91
2023-05-04T05:59:08.654Z,26.94
2023-05-04T06:00:08.768Z,26.95
2023-05-04T06:01:08.735Z,26.99
2023-05-04T06:02:08.798Z,26.99
2023-05-04T06:03:08.833Z,26.99
2023-05-04T06:04:08.883Z,27.05
2023-05-04T06:05:08.771Z,27.02
2023-05-04T06:06:08.807Z,27.05
2023-05-04T06:07:08.777Z,27.05
2023-05-04T06:08:08.796Z,27.09
2023-05-04T06:09:08.825Z,27.08
2023-05-04T06:10:09.004Z,27.09
2023-05-04T06:11:08.845Z,27.09
2023-05-04T06:12:08.892Z,27.11
2023-05-04T06:13:09.393Z,27.09
2023-05-04T06:14:09.286Z,27.09
2023-05-04T06:15:08.874Z,27.15
2023-05-04T06:16:09.330Z,27.14
2023-05-04T06:17:08.848Z,27.15
2023-05-04T06:18:09.005Z,27.15
2023-05-04T06:19:08.859Z,27.16
2023-05-04T06:20:08.885Z,27.15
2023-05-04T06:21:08.886Z,27.19
2023-05-04T06:22:08.889Z,27.16
2023-05-04T06:23:08.954Z,27.19
2023-05-04T06:24:08.897Z,27.18
2023-05-04T06:25:08.926Z,27.19
2023-05-04T06:26:08.902Z,27.19
2023-05-04T06:27:08.972Z,27.22
2023-05-04T06:28:08.960Z,27.26
2023-05-04T06:29:08.941Z,27.28
2023-05-04T06:30:09.226Z,27.28
2023-05-04T06:31:09.080Z,27.32
2023-05-04T06:32:09.315Z,27.32
2023-05-04T06:33:09.119Z,27.31
2023-05-04T06:34:09.024Z,27.31
2023-05-04T06:35:09.128Z,27.33
2023-05-04T06:36:09.044Z,27.31
2023-05-04T06:37:09.027Z,27.33
2023-05-04T06:38:09.087Z,27.32
2023-05-04T06:39:09.061Z,27.33
2023-05-04T06:40:09.246Z,27.32
2023-05-04T06:41:09.036Z,27.28
2023-05-04T06:42:09.124Z,27.26
2023-05-04T06:43:09.752Z,27.24
2023-05-04T06:44:09.119Z,27.22
2023-05-04T06:45:09.206Z,27.19
2023-05-04T06:46:09.332Z,27.15
2023-05-04T06:47:09.215Z,27.12
2023-05-04T06:48:09.280Z,27.06
2023-05-04T06:49:09.440Z,27.05
2023-05-04T06:50:09.423Z,27.01
2023-05-04T06:51:09.423Z,26.97
2023-05-04T06:52:09.493Z,26.95
2023-05-04T06:53:09.838Z,26.88
2023-05-04T06:54:09.639Z,26.85
2023-05-04T06:55:09.666Z,26.81
2023-05-04T06:56:09.723Z,26.80
2023-05-04T06:57:09.772Z,26.78
2023-05-04T06:58:09.795Z,26.77
2023-05-04T06:59:09.793Z,26.74
2023-05-04T07:00:10.310Z,26.71
2023-05-04T07:01:09.819Z,26.70
2023-05-04T07:02:09.772Z,26.64
2023-05-04T07:03:09.873Z,26.64
2023-05-04T07:04:10.020Z,26.58
2023-05-04T07:05:09.790Z,26.57
2023-05-04T07:06:09.820Z,26.54
2023-05-04T07:07:09.840Z,26.53
2023-05-04T07:08:09.865Z,26.50
2023-05-04T07:09:09.849Z,26.51
2023-05-04T07:10:09.916Z,26.48
2023-05-04T07:11:09.932Z,26.46
2023-05-04T07:12:09.931Z,26.47
2023-05-04T07:13:10.073Z,26.46
2023-05-04T07:14:10.603Z,26.46
2023-05-04T07:15:09.997Z,26.46
2023-05-04T07:16:09.974Z,26.44
2023-05-04T07:17:09.982Z,26.46
2023-05-04T07:18:10.052Z,26.46
2023-05-04T07:19:10.016Z,26.46
2023-05-04T07:20:10.050Z,26.47
2023-05-04T07:21:25.923Z,26.50
2023-05-04T07:22:11.048Z,26.47
2023-05-04T07:23:10.018Z,26.46
2023-05-04T07:24:10.076Z,26.46
2023-05-04T07:25:10.301Z,26.43
2023-05-04T07:26:10.028Z,26.39
2023-05-04T07:27:10.039Z,26.37
2023-05-04T07:28:09.966Z,26.39
2023-05-04T07:29:10.100Z,26.34
2023-05-04T07:30:10.412Z,26.36
2023-05-04T07:31:10.000Z,26.36
2023-05-04T07:32:09.983Z,26.36
2023-05-04T07:33:09.972Z,26.36
2023-05-04T07:34:09.986Z,26.33
2023-05-04T07:35:10.004Z,26.37
2023-05-04T07:36:09.967Z,26.36
2023-05-04T07:37:09.942Z,26.36
2023-05-04T07:38:09.906Z,26.34
2023-05-04T07:39:10.788Z,26.40
2023-05-04T07:40:10.058Z,26.44
2023-05-04T07:41:09.886Z,26.48
2023-05-04T07:42:09.910Z,26.53
2023-05-04T07:43:09.885Z,26.60
2023-05-04T07:44:09.967Z,26.67
2023-05-04T07:45:10.348Z,26.71
2023-05-04T07:46:10.099Z,26.78
2023-05-04T07:47:10.069Z,26.81
2023-05-04T07:48:10.155Z,26.84
2023-05-04T07:49:10.111Z,26.88
2023-05-04T07:50:10.305Z,26.95
2023-05-04T07:51:10.193Z,26.98
2023-05-04T07:52:10.166Z,27.02
2023-05-04T07:53:10.268Z,27.06
2023-05-04T07:54:10.255Z,27.09
2023-05-04T07:55:10.224Z,27.12
2023-05-04T07:56:10.342Z,27.18
2023-05-04T07:57:10.303Z,27.18
2023-05-04T07:58:10.278Z,27.22
2023-05-04T07:59:10.302Z,27.26
2023-05-04T08:00:10.309Z,27.25
2023-05-04T08:01:10.484Z,27.33
2023-05-04T08:02:10.557Z,27.33
2023-05-04T08:03:10.606Z,27.35
2023-05-04T08:04:10.446Z,27.39
2023-05-04T08:05:10.682Z,27.39
2023-05-04T08:06:10.444Z,27.43
2023-05-04T08:07:10.451Z,27.45
2023-05-04T08:08:10.479Z,27.49
2023-05-04T08:09:10.481Z,27.50
2023-05-04T08:10:10.501Z,27.49
2023-05-04T08:11:19.927Z,27.52
2023-05-04T08:12:11.503Z,27.55
2023-05-04T08:13:10.624Z,27.53
2023-05-04T08:14:10.523Z,27.57
2023-05-04T08:15:10.658Z,27.57
2023-05-04T08:16:10.486Z,27.59
2023-05-04T08:17:10.542Z,27.62
2023-05-04T08:18:10.494Z,27.63
2023-05-04T08:19:10.522Z,27.63
2023-05-04T08:20:10.505Z,27.65
2023-05-04T08:21:10.447Z,27.66
2023-05-04T08:22:10.463Z,27.67
2023-05-04T08:23:10.426Z,27.69
2023-05-04T08:24:10.427Z,27.73
2023-05-04T08:25:10.439Z,27.72
2023-05-04T08:26:11.228Z,27.70
2023-05-04T08:27:10.812Z,27.70
2023-05-04T08:28:10.569Z,27.73
2023-05-04T08:29:10.832Z,27.72
2023-05-04T08:30:10.617Z,27.69
2023-05-04T08:31:10.678Z,27.63
2023-05-04T08:32:10.623Z,27.55
2023-05-04T08:33:10.809Z,27.48
2023-05-04T08:34:10.708Z,27.31
2023-05-04T08:35:10.752Z,27.26
2023-05-04T08:36:10.870Z,27.15
2023-05-04T08:37:10.855Z,27.05
2023-05-04T08:38:10.841Z,26.94
2023-05-04T08:39:10.850Z,26.88
2023-05-04T08:40:10.918Z,26.80
2023-05-04T08:41:10.856Z,26.75
2023-05-04T08:42:10.913Z,26.71
2023-05-04T08:43:10.906Z,26.70
2023-05-04T08:44:10.917Z,26.70
2023-05-04T08:45:11.032Z,26.73
2023-05-04T08:46:11.056Z,26.75
2023-05-04T08:47:11.106Z,26.80
2023-05-04T08:48:11.256Z,26.84
2023-05-04T08:49:11.174Z,26.91
2023-05-04T08:50:11.178Z,26.92
2023-05-04T08:51:11.282Z,26.98
2023-05-04T08:52:11.269Z,27.04
2023-05-04T08:53:11.317Z,27.08
2023-05-04T08:54:11.352Z,27.12
2023-05-04T08:55:11.360Z,27.15
2023-05-04T08:56:12.325Z,27.21
2023-05-04T08:57:11.331Z,27.26
2023-05-04T08:58:11.379Z,27.32
2023-05-04T08:59:11.388Z,27.33
2023-05-04T09:00:11.403Z,27.36
2023-05-04T09:01:11.518Z,27.42
2023-05-04T09:02:11.445Z,27.45
2023-05-04T09:03:11.517Z,27.52
2023-05-04T09:04:11.456Z,27.53
2023-05-04T09:05:11.458Z,27.57
2023-05-04T09:06:11.491Z,27.60
2023-05-04T09:07:11.476Z,27.60
2023-05-04T09:08:11.584Z,27.65
2023-05-04T09:09:11.599Z,27.67
2023-05-04T09:10:11.617Z,27.70
2023-05-04T09:11:11.684Z,27.72
2023-05-04T09:12:11.743Z,27.77
2023-05-04T09:13:11.872Z,27.79
2023-05-04T09:14:12.356Z,27.82
2023-05-04T09:15:11.915Z,27.83
2023-05-04T09:16:14.692Z,27.83
2023-05-04T09:17:12.046Z,27.87
2023-05-04T09:18:12.040Z,27.87
2023-05-04T09:19:11.961Z,27.92
2023-05-04T09:20:11.928Z,27.90
2023-05-04T09:21:11.954Z,27.92
2023-05-04T09:22:11.923Z,27.93
2023-05-04T09:23:11.979Z,27.96
2023-05-04T09:24:11.929Z,27.96
2023-05-04T09:25:11.879Z,27.94
2023-05-04T09:26:11.837Z,27.97
2023-05-04T09:27:11.948Z,27.94
2023-05-04T09:28:11.891Z,27.97
2023-05-04T09:29:12.850Z,27.94
2023-05-04T09:30:11.860Z,27.96
2023-05-04T09:31:11.948Z,27.97
2023-05-04T09:32:11.947Z,27.96
2023-05-04T09:33:11.820Z,27.97
2023-05-04T09:34:11.963Z,27.97
2023-05-04T09:35:16.224Z,27.96
2023-05-04T09:36:12.833Z,27.89
2023-05-04T09:37:11.847Z,27.89
2023-05-04T09:38:11.859Z,27.87
2023-05-04T09:39:11.787Z,27.89
2023-05-04T09:40:11.827Z,27.87
2023-05-04T09:41:11.792Z,27.86
2023-05-04T09:42:11.816Z,27.82
2023-05-04T09:43:11.785Z,27.79
2023-05-04T09:44:11.751Z,27.80
2023-05-04T09:45:11.780Z,27.83
2023-05-04T09:46:11.982Z,27.84
2023-05-04T09:47:11.908Z,27.86
2023-05-04T09:48:12.184Z,27.86
2023-05-04T09:49:12.066Z,27.87
2023-05-04T09:50:12.064Z,27.90
2023-05-04T09:51:12.485Z,27.93
2023-05-04T09:52:12.372Z,27.92
2023-05-04T09:53:12.385Z,27.92
2023-05-04T09:54:12.314Z,27.93
2023-05-04T09:55:12.380Z,27.96
2023-05-04T09:56:12.424Z,27.96
2023-05-04T09:57:13.027Z,27.96
2023-05-04T09:58:12.548Z,27.96
2023-05-04T09:59:12.612Z,27.96
2023-05-04T10:00:12.662Z,28.00
2023-05-04T10:01:12.768Z,28.00
2023-05-04T10:02:22.035Z,27.99
2023-05-04T10:03:13.969Z,27.99
2023-05-04T10:04:12.753Z,27.99
2023-05-04T10:05:12.746Z,27.99
2023-05-04T10:06:12.699Z,27.97
2023-05-04T10:07:12.802Z,27.97
2023-05-04T10:08:12.733Z,28.01
2023-05-04T10:09:12.726Z,28.01
2023-05-04T10:10:12.655Z,27.99
2023-05-04T10:11:12.702Z,27.99
2023-05-04T10:12:12.703Z,28.01
2023-05-04T10:13:12.748Z,28.01
2023-05-04T10:14:12.678Z,28.01
2023-05-04T10:15:12.659Z,28.01
2023-05-04T10:16:12.642Z,28.04
2023-05-04T10:17:13.817Z,28.07
2023-05-04T10:18:12.637Z,28.04
2023-05-04T10:19:12.652Z,28.10
2023-05-04T10:20:12.651Z,28.10
2023-05-04T10:21:12.808Z,28.10
2023-05-04T10:22:12.713Z,28.08
2023-05-04T10:23:12.703Z,28.10
2023-05-04T10:24:12.714Z,28.11
2023-05-04T10:25:12.734Z,28.13
2023-05-04T10:26:12.733Z,28.13
2023-05-04T10:27:12.777Z,28.14
2023-05-04T10:28:13.013Z,28.14
2023-05-04T10:29:12.876Z,28.13
2023-05-04T10:30:12.916Z,28.06
2023-05-04T10:31:12.982Z,28.03
2023-05-04T10:32:12.963Z,28.06
2023-05-04T10:33:13.061Z,28.04
2023-05-04T10:34:13.065Z,28.10
2023-05-04T10:35:13.116Z,28.08
2023-05-04T10:36:13.179Z,28.08
2023-05-04T10:37:13.219Z,28.10
2023-05-04T10:38:13.387Z,28.10
2023-05-04T10:39:13.258Z,28.10
2023-05-04T10:40:13.358Z,28.07
2023-05-04T10:41:13.424Z,28.08
2023-05-04T10:42:13.427Z,28.08
2023-05-04T10:43:13.463Z,28.10
2023-05-04T10:44:13.496Z,28.13
2023-05-04T10:45:13.539Z,28.13
2023-05-04T10:46:13.668Z,28.10
2023-05-04T10:47:13.613Z,28.11
2023-05-04T10:48:13.825Z,28.10
2023-05-04T10:49:13.672Z,28.15
2023-05-04T10:50:13.736Z,28.15
2023-05-04T10:51:13.704Z,28.14
2023-05-04T10:52:13.757Z,28.20
2023-05-04T10:53:13.757Z,28.17
2023-05-04T10:54:13.744Z,28.18
2023-05-04T10:55:13.859Z,28.15
2023-05-04T10:56:13.826Z,28.20
2023-05-04T10:57:13.845Z,28.18
2023-05-04T10:58:13.884Z,28.21
2023-05-04T10:59:13.891Z,28.21
2023-05-04T11:00:13.886Z,28.23
2023-05-04T11:01:13.920Z,28.25
2023-05-04T11:02:13.905Z,28.25
2023-05-04T11:03:14.141Z,28.28
2023-05-04T11:04:13.915Z,28.24
2023-05-04T11:05:13.928Z,28.27
2023-05-04T11:06:13.939Z,28.27
2023-05-04T11:07:14.027Z,28.25
2023-05-04T11:08:14.009Z,28.28
2023-05-04T11:09:13.975Z,28.28
2023-05-04T11:10:13.992Z,28.30
2023-05-04T11:11:14.037Z,28.28
2023-05-04T11:12:13.985Z,28.31
2023-05-04T11:13:14.293Z,28.33
2023-05-04T11:14:14.081Z,28.35
2023-05-04T11:15:14.073Z,28.31
2023-05-04T11:16:14.110Z,28.33
2023-05-04T11:18:14.501Z,28.27
2023-05-04T11:19:14.343Z,28.28
2023-05-04T11:20:14.435Z,28.30
2023-05-04T11:21:14.021Z,28.30
2023-05-04T11:22:14.000Z,28.27
2023-05-04T11:23:14.423Z,28.18
2023-05-04T11:24:13.961Z,28.14
2023-05-04T11:25:13.941Z,28.08
2023-05-04T11:26:13.971Z,28.04
2023-05-04T11:27:13.972Z,28.00
2023-05-04T11:28:14.313Z,27.96
2023-05-04T11:29:14.105Z,27.93
2023-05-04T11:30:13.996Z,27.90
2023-05-04T11:31:14.070Z,27.89
2023-05-04T11:32:13.993Z,27.86
2023-05-04T11:33:13.911Z,27.83
2023-05-04T11:34:13.902Z,27.82
2023-05-04T11:35:13.884Z,27.76
2023-05-04T11:36:13.860Z,27.74
2023-05-04T11:37:13.924Z,27.73
2023-05-04T11:38:13.863Z,27.70
2023-05-04T11:39:13.918Z,27.67
2023-05-04T11:40:13.938Z,27.66
2023-05-04T11:41:13.861Z,27.67
2023-05-04T11:42:13.935Z,27.67
2023-05-04T11:43:13.856Z,27.65
2023-05-04T11:44:13.873Z,27.63
2023-05-04T11:45:13.819Z,27.59
2023-05-04T11:46:13.922Z,27.57
2023-05-04T11:47:13.802Z,27.57
2023-05-04T11:48:14.151Z,27.55
2023-05-04T11:49:13.801Z,27.52
2023-05-04T11:50:13.827Z,27.49
2023-05-04T11:51:13.742Z,27.45
2023-05-04T11:52:13.753Z,27.46
2023-05-04T11:53:13.767Z,27.46
2023-05-04T11:54:13.749Z,27.46
2023-05-04T11:55:13.761Z,27.48
2023-05-04T11:56:13.748Z,27.46
2023-05-04T11:57:13.751Z,27.46
2023-05-04T11:58:13.777Z,27.46
2023-05-04T11:59:13.692Z,27.45
2023-05-04T12:00:13.702Z,27.49
2023-05-04T12:01:13.702Z,27.46
2023-05-04T12:02:13.715Z,27.49
2023-05-04T12:03:13.783Z,27.50
2023-05-04T12:04:13.685Z,27.46
2023-05-04T12:05:13.741Z,27.49
2023-05-04T12:06:13.632Z,27.49
2023-05-04T12:07:13.656Z,27.52
2023-05-04T12:08:13.653Z,27.53
2023-05-04T12:09:13.642Z,27.53
2023-05-04T12:10:13.781Z,27.50
2023-05-04T12:11:13.616Z,27.50
2023-05-04T12:12:13.624Z,27.50
2023-05-04T12:13:13.699Z,27.45
2023-05-04T12:14:13.675Z,27.45
2023-05-04T12:15:13.616Z,27.39
2023-05-04T12:16:13.694Z,27.38
2023-05-04T12:17:13.694Z,27.39
2023-05-04T12:18:13.602Z,27.41
2023-05-04T12:19:13.609Z,27.41
2023-05-04T12:20:13.724Z,27.38
2023-05-04T12:21:13.595Z,27.36
2023-05-04T12:22:13.557Z,27.33
2023-05-04T12:23:13.620Z,27.35
2023-05-04T12:24:13.581Z,27.33
2023-05-04T12:25:13.552Z,27.33
2023-05-04T12:26:13.497Z,27.32
2023-05-04T12:27:13.544Z,27.32
2023-05-04T12:28:13.555Z,27.31
2023-05-04T12:29:13.507Z,27.31
2023-05-04T12:30:13.520Z,27.32
2023-05-04T12:31:13.518Z,27.32
2023-05-04T12:32:13.598Z,27.32
2023-05-04T12:33:13.491Z,27.31
2023-05-04T12:34:13.494Z,27.29
2023-05-04T12:35:13.503Z,27.28
2023-05-04T12:36:13.488Z,27.28
2023-05-04T12:37:13.449Z,27.28
2023-05-04T12:38:13.492Z,27.32
2023-05-04T12:39:13.501Z,27.31
2023-05-04T12:40:27.337Z,27.31
2023-05-04T12:41:14.546Z,27.33
2023-05-04T12:42:13.525Z,27.32
2023-05-04T12:43:13.491Z,27.33
2023-05-04T12:44:13.500Z,27.35
2023-05-04T12:45:13.525Z,27.32
2023-05-04T12:46:13.566Z,27.32
2023-05-04T12:47:13.488Z,27.31
2023-05-04T12:48:13.484Z,27.31
2023-05-04T12:49:13.461Z,27.29
2023-05-04T12:50:13.467Z,27.29
2023-05-04T12:51:13.450Z,27.32
2023-05-04T12:52:13.414Z,27.32
2023-05-04T12:53:13.435Z,27.29
2023-05-04T12:54:13.422Z,27.32